sensor_id;sensor_type;location;lat;lon;timestamp;temperature;humidity
75489;HTU21D;64069;46.396;48.102;2023-04-27T00:01:20;9.78;59.27
75489;HTU21D;64069;46.396;48.102;2023-04-27T00:03:46;9.75;59.38
75489;HTU21D;64069;46.396;48.102;2023-04-27T00:06:12;9.69;59.45
75489;HTU21D;64069;46.396;48.102;2023-04-27T00:08:37;9.66;59.47
75489;HTU21D;64069;46.396;48.102;2023-04-27T00:11:03;9.62;59.51
75489;HTU21D;64069;46.396;48.102;2023-04-27T00:13:29;9.59;59.56
75489;HTU21D;64069;46.396;48.102;2023-04-27T00:15:55;9.54;59.58
75489;HTU21D;64069;46.396;48.102;2023-04-27T00:18:20;9.51;59.61
75489;HTU21D;64069;46.396;48.102;2023-04-27T00:20:46;9.49;59.64
75489;HTU21D;64069;46.396;48.102;2023-04-27T00:23:12;9.49;59.63
75489;HTU21D;64069;46.396;48.102;2023-04-27T00:25:38;9.48;59.60
75489;HTU21D;64069;46.396;48.102;2023-04-27T00:28:03;9.45;59.64
75489;HTU21D;64069;46.396;48.102;2023-04-27T00:30:29;9.47;59.73
75489;HTU21D;64069;46.396;48.102;2023-04-27T00:32:55;9.53;59.77
75489;HTU21D;64069;46.396;48.102;2023-04-27T00:35:21;9.53;60.18
75489;HTU21D;64069;46.396;48.102;2023-04-27T00:37:47;9.48;60.51
75489;HTU21D;64069;46.396;48.102;2023-04-27T00:40:12;9.42;60.51
75489;HTU21D;64069;46.396;48.102;2023-04-27T00:42:38;9.39;60.54
75489;HTU21D;64069;46.396;48.102;2023-04-27T00:45:04;9.40;60.51
75489;HTU21D;64069;46.396;48.102;2023-04-27T00:47:30;9.39;60.50
75489;HTU21D;64069;46.396;48.102;2023-04-27T00:49:56;9.39;60.54
75489;HTU21D;64069;46.396;48.102;2023-04-27T00:52:24;9.40;60.55
75489;HTU21D;64069;46.396;48.102;2023-04-27T00:54:50;9.39;60.55
75489;HTU21D;64069;46.396;48.102;2023-04-27T00:57:16;9.39;60.59
75489;HTU21D;64069;46.396;48.102;2023-04-27T00:59:43;9.34;60.64
75489;HTU21D;64069;46.396;48.102;2023-04-27T01:02:11;9.34;60.67
75489;HTU21D;64069;46.396;48.102;2023-04-27T01:04:38;9.38;60.63
75489;HTU21D;64069;46.396;48.102;2023-04-27T01:07:03;9.42;60.58
75489;HTU21D;64069;46.396;48.102;2023-04-27T01:09:30;9.49;60.50
75489;HTU21D;64069;46.396;48.102;2023-04-27T01:11:56;9.56;60.54
75489;HTU21D;64069;46.396;48.102;2023-04-27T01:14:22;9.62;60.67
75489;HTU21D;64069;46.396;48.102;2023-04-27T01:16:50;9.68;60.65
75489;HTU21D;64069;46.396;48.102;2023-04-27T01:19:16;9.77;60.59
75489;HTU21D;64069;46.396;48.102;2023-04-27T01:21:42;9.92;60.43
75489;HTU21D;64069;46.396;48.102;2023-04-27T01:24:07;10.00;60.30
75489;HTU21D;64069;46.396;48.102;2023-04-27T01:26:36;9.95;60.46
75489;HTU21D;64069;46.396;48.102;2023-04-27T01:29:01;9.88;60.71
75489;HTU21D;64069;46.396;48.102;2023-04-27T01:31:27;9.80;61.12
75489;HTU21D;64069;46.396;48.102;2023-04-27T01:33:53;9.78;61.83
75489;HTU21D;64069;46.396;48.102;2023-04-27T01:36:19;9.84;61.73
75489;HTU21D;64069;46.396;48.102;2023-04-27T01:38:45;9.94;61.57
75489;HTU21D;64069;46.396;48.102;2023-04-27T01:41:11;10.01;61.79
75489;HTU21D;64069;46.396;48.102;2023-04-27T01:43:37;10.03;64.30
75489;HTU21D;64069;46.396;48.102;2023-04-27T01:46:07;10.03;65.37
75489;HTU21D;64069;46.396;48.102;2023-04-27T01:48:33;10.01;64.78
75489;HTU21D;64069;46.396;48.102;2023-04-27T01:50:59;10.00;64.83
75489;HTU21D;64069;46.396;48.102;2023-04-27T01:53:25;9.98;64.56
75489;HTU21D;64069;46.396;48.102;2023-04-27T01:55:51;9.96;64.59
75489;HTU21D;64069;46.396;48.102;2023-04-27T01:58:17;9.99;65.78
75489;HTU21D;64069;46.396;48.102;2023-04-27T02:00:43;10.03;65.48
75489;HTU21D;64069;46.396;48.102;2023-04-27T02:03:08;10.08;65.20
75489;HTU21D;64069;46.396;48.102;2023-04-27T02:05:34;10.18;65.09
75489;HTU21D;64069;46.396;48.102;2023-04-27T02:08:00;10.37;64.70
75489;HTU21D;64069;46.396;48.102;2023-04-27T02:10:26;10.65;64.23
75489;HTU21D;64069;46.396;48.102;2023-04-27T02:12:54;11.02;63.62
75489;HTU21D;64069;46.396;48.102;2023-04-27T02:15:19;11.41;62.94
75489;HTU21D;64069;46.396;48.102;2023-04-27T02:17:45;11.74;62.35
75489;HTU21D;64069;46.396;48.102;2023-04-27T02:20:11;11.99;62.05
75489;HTU21D;64069;46.396;48.102;2023-04-27T02:22:40;12.30;61.76
75489;HTU21D;64069;46.396;48.102;2023-04-27T02:25:08;12.70;61.33
75489;HTU21D;64069;46.396;48.102;2023-04-27T02:27:36;13.07;60.85
75489;HTU21D;64069;46.396;48.102;2023-04-27T02:30:05;13.48;60.49
75489;HTU21D;64069;46.396;48.102;2023-04-27T02:32:32;13.85;60.14
75489;HTU21D;64069;46.396;48.102;2023-04-27T02:34:57;14.25;59.83
75489;HTU21D;64069;46.396;48.102;2023-04-27T02:37:25;14.63;59.51
75489;HTU21D;64069;46.396;48.102;2023-04-27T02:39:51;14.96;59.32
75489;HTU21D;64069;46.396;48.102;2023-04-27T02:42:17;15.30;59.18
75489;HTU21D;64069;46.396;48.102;2023-04-27T02:44:43;15.65;58.96
75489;HTU21D;64069;46.396;48.102;2023-04-27T02:47:09;15.96;58.79
75489;HTU21D;64069;46.396;48.102;2023-04-27T02:49:35;16.17;58.83
75489;HTU21D;64069;46.396;48.102;2023-04-27T02:52:01;16.41;58.92
75489;HTU21D;64069;46.396;48.102;2023-04-27T02:54:27;16.65;58.87
75489;HTU21D;64069;46.396;48.102;2023-04-27T02:56:53;16.79;58.93
75489;HTU21D;64069;46.396;48.102;2023-04-27T02:59:19;16.95;59.04
75489;HTU21D;64069;46.396;48.102;2023-04-27T03:01:45;17.11;59.19
75489;HTU21D;64069;46.396;48.102;2023-04-27T03:04:11;17.32;59.12
75489;HTU21D;64069;46.396;48.102;2023-04-27T03:06:38;17.50;59.02
75489;HTU21D;64069;46.396;48.102;2023-04-27T03:09:04;17.73;58.92
75489;HTU21D;64069;46.396;48.102;2023-04-27T03:11:30;17.92;58.98
75489;HTU21D;64069;46.396;48.102;2023-04-27T03:13:56;18.03;59.05
75489;HTU21D;64069;46.396;48.102;2023-04-27T03:16:22;18.05;59.18
75489;HTU21D;64069;46.396;48.102;2023-04-27T03:18:47;18.05;59.45
75489;HTU21D;64069;46.396;48.102;2023-04-27T03:21:13;18.09;59.46
75489;HTU21D;64069;46.396;48.102;2023-04-27T03:23:41;18.22;59.48
75489;HTU21D;64069;46.396;48.102;2023-04-27T03:26:07;18.35;59.25
75489;HTU21D;64069;46.396;48.102;2023-04-27T03:28:33;18.36;59.31
75489;HTU21D;64069;46.396;48.102;2023-04-27T03:31:00;18.56;59.22
75489;HTU21D;64069;46.396;48.102;2023-04-27T03:33:25;18.84;58.91
75489;HTU21D;64069;46.396;48.102;2023-04-27T03:35:55;18.97;58.74
75489;HTU21D;64069;46.396;48.102;2023-04-27T03:38:22;19.12;58.74
75489;HTU21D;64069;46.396;48.102;2023-04-27T03:40:48;19.32;58.61
75489;HTU21D;64069;46.396;48.102;2023-04-27T03:43:14;19.63;58.25
75489;HTU21D;64069;46.396;48.102;2023-04-27T03:45:39;0.00;57.76
75489;HTU21D;64069;46.396;48.102;2023-04-27T03:48:05;0.00;57.42
75489;HTU21D;64069;46.396;48.102;2023-04-27T03:50:32;20.56;57.16
75489;HTU21D;64069;46.396;48.102;2023-04-27T03:52:59;20.71;57.01
75489;HTU21D;64069;46.396;48.102;2023-04-27T03:55:25;20.79;57.03
75489;HTU21D;64069;46.396;48.102;2023-04-27T03:57:51;0.00;57.13
75489;HTU21D;64069;46.396;48.102;2023-04-27T04:00:19;0.00;57.17
75489;HTU21D;64069;46.396;48.102;2023-04-27T04:02:46;20.95;56.99
75489;HTU21D;64069;46.396;48.102;2023-04-27T04:05:11;21.04;56.87
75489;HTU21D;64069;46.396;48.102;2023-04-27T04:07:39;21.20;56.71
75489;HTU21D;64069;46.396;48.102;2023-04-27T04:10:07;21.27;56.42
75489;HTU21D;64069;46.396;48.102;2023-04-27T04:12:32;21.29;56.36
75489;HTU21D;64069;46.396;48.102;2023-04-27T04:14:59;21.33;56.24
75489;HTU21D;64069;46.396;48.102;2023-04-27T04:17:25;21.32;56.18
75489;HTU21D;64069;46.396;48.102;2023-04-27T04:19:51;21.42;56.13
75489;HTU21D;64069;46.396;48.102;2023-04-27T04:22:17;21.35;55.80
75489;HTU21D;64069;46.396;48.102;2023-04-27T04:24:44;21.01;56.28
75489;HTU21D;64069;46.396;48.102;2023-04-27T04:27:10;20.57;56.73
75489;HTU21D;64069;46.396;48.102;2023-04-27T04:29:35;20.16;57.64
75489;HTU21D;64069;46.396;48.102;2023-04-27T04:32:03;19.99;57.99
75489;HTU21D;64069;46.396;48.102;2023-04-27T04:34:29;19.94;57.96
75489;HTU21D;64069;46.396;48.102;2023-04-27T04:36:55;20.03;57.76
75489;HTU21D;64069;46.396;48.102;2023-04-27T04:39:22;20.19;57.32
75489;HTU21D;64069;46.396;48.102;2023-04-27T04:41:48;20.43;57.00
75489;HTU21D;64069;46.396;48.102;2023-04-27T04:44:15;20.74;56.45
75489;HTU21D;64069;46.396;48.102;2023-04-27T04:46:43;21.11;55.92
75489;HTU21D;64069;46.396;48.102;2023-04-27T04:49:08;21.34;55.39
75489;HTU21D;64069;46.396;48.102;2023-04-27T04:51:34;21.57;55.17
75489;HTU21D;64069;46.396;48.102;2023-04-27T04:54:00;21.81;54.78
75489;HTU21D;64069;46.396;48.102;2023-04-27T04:56:26;22.09;54.47
75489;HTU21D;64069;46.396;48.102;2023-04-27T04:58:55;22.40;54.19
75489;HTU21D;64069;46.396;48.102;2023-04-27T05:01:20;22.77;53.69
75489;HTU21D;64069;46.396;48.102;2023-04-27T05:03:47;22.97;53.51
75489;HTU21D;64069;46.396;48.102;2023-04-27T05:06:12;22.91;53.19
75489;HTU21D;64069;46.396;48.102;2023-04-27T05:08:38;22.85;53.49
75489;HTU21D;64069;46.396;48.102;2023-04-27T05:11:04;22.94;53.55
75489;HTU21D;64069;46.396;48.102;2023-04-27T05:13:30;23.14;53.08
75489;HTU21D;64069;46.396;48.102;2023-04-27T05:15:56;23.14;52.94
75489;HTU21D;64069;46.396;48.102;2023-04-27T05:18:22;23.26;52.82
75489;HTU21D;64069;46.396;48.102;2023-04-27T05:20:48;23.50;52.43
75489;HTU21D;64069;46.396;48.102;2023-04-27T05:23:13;23.66;52.11
75489;HTU21D;64069;46.396;48.102;2023-04-27T05:25:39;23.74;51.72
75489;HTU21D;64069;46.396;48.102;2023-04-27T05:28:08;23.61;50.46
75489;HTU21D;64069;46.396;48.102;2023-04-27T05:30:34;23.28;51.01
75489;HTU21D;64069;46.396;48.102;2023-04-27T05:33:00;23.37;50.67
75489;HTU21D;64069;46.396;48.102;2023-04-27T05:35:26;23.34;50.24
75489;HTU21D;64069;46.396;48.102;2023-04-27T05:37:52;23.26;50.44
75489;HTU21D;64069;46.396;48.102;2023-04-27T05:40:18;23.14;50.53
75489;HTU21D;64069;46.396;48.102;2023-04-27T05:42:46;23.16;50.75
75489;HTU21D;64069;46.396;48.102;2023-04-27T05:45:12;23.37;50.50
75489;HTU21D;64069;46.396;48.102;2023-04-27T05:47:39;23.28;50.07
75489;HTU21D;64069;46.396;48.102;2023-04-27T05:50:04;23.20;49.81
75489;HTU21D;64069;46.396;48.102;2023-04-27T05:52:30;23.28;50.15
75489;HTU21D;64069;46.396;48.102;2023-04-27T05:54:56;23.54;49.78
75489;HTU21D;64069;46.396;48.102;2023-04-27T05:57:23;23.65;49.08
75489;HTU21D;64069;46.396;48.102;2023-04-27T05:59:49;23.55;48.67
75489;HTU21D;64069;46.396;48.102;2023-04-27T06:02:15;23.16;49.21
75489;HTU21D;64069;46.396;48.102;2023-04-27T06:04:40;22.97;49.31
75489;HTU21D;64069;46.396;48.102;2023-04-27T06:07:07;22.92;49.11
75489;HTU21D;64069;46.396;48.102;2023-04-27T06:09:33;22.85;49.28
75489;HTU21D;64069;46.396;48.102;2023-04-27T06:11:59;22.97;48.65
75489;HTU21D;64069;46.396;48.102;2023-04-27T06:14:26;22.91;48.30
75489;HTU21D;64069;46.396;48.102;2023-04-27T06:16:51;22.71;48.76
75489;HTU21D;64069;46.396;48.102;2023-04-27T06:19:17;22.47;48.79
75489;HTU21D;64069;46.396;48.102;2023-04-27T06:21:43;22.21;48.75
75489;HTU21D;64069;46.396;48.102;2023-04-27T06:24:08;22.03;48.95
75489;HTU21D;64069;46.396;48.102;2023-04-27T06:26:34;0.00;48.97
75489;HTU21D;64069;46.396;48.102;2023-04-27T06:29:00;22.21;48.56
75489;HTU21D;64069;46.396;48.102;2023-04-27T06:31:28;22.66;48.37
75489;HTU21D;64069;46.396;48.102;2023-04-27T06:33:54;22.99;47.68
75489;HTU21D;64069;46.396;48.102;2023-04-27T06:36:24;23.22;47.15
75489;HTU21D;64069;46.396;48.102;2023-04-27T06:38:51;23.26;46.58
75489;HTU21D;64069;46.396;48.102;2023-04-27T06:41:20;23.31;46.69
75489;HTU21D;64069;46.396;48.102;2023-04-27T06:43:45;23.37;46.34
75489;HTU21D;64069;46.396;48.102;2023-04-27T06:46:11;23.38;46.12
75489;HTU21D;64069;46.396;48.102;2023-04-27T06:48:37;23.44;46.12
75489;HTU21D;64069;46.396;48.102;2023-04-27T06:51:03;23.53;45.74
75489;HTU21D;64069;46.396;48.102;2023-04-27T06:53:29;23.58;45.56
75489;HTU21D;64069;46.396;48.102;2023-04-27T06:55:55;23.57;44.98
75489;HTU21D;64069;46.396;48.102;2023-04-27T06:58:20;23.55;45.25
75489;HTU21D;64069;46.396;48.102;2023-04-27T07:00:46;23.51;44.96
75489;HTU21D;64069;46.396;48.102;2023-04-27T07:03:16;23.50;44.74
75489;HTU21D;64069;46.396;48.102;2023-04-27T07:05:42;23.54;44.43
75489;HTU21D;64069;46.396;48.102;2023-04-27T07:08:07;23.51;44.73
75489;HTU21D;64069;46.396;48.102;2023-04-27T07:10:33;23.50;44.62
75489;HTU21D;64069;46.396;48.102;2023-04-27T07:12:59;23.46;43.83
75489;HTU21D;64069;46.396;48.102;2023-04-27T07:15:25;23.39;44.25
75489;HTU21D;64069;46.396;48.102;2023-04-27T07:17:51;23.34;44.18
75489;HTU21D;64069;46.396;48.102;2023-04-27T07:20:18;23.42;43.89
75489;HTU21D;64069;46.396;48.102;2023-04-27T07:22:44;23.51;43.78
75489;HTU21D;64069;46.396;48.102;2023-04-27T07:25:10;23.62;43.50
75489;HTU21D;64069;46.396;48.102;2023-04-27T07:27:36;23.70;42.67
75489;HTU21D;64069;46.396;48.102;2023-04-27T07:30:03;23.68;43.13
75489;HTU21D;64069;46.396;48.102;2023-04-27T07:32:29;23.68;43.04
75489;HTU21D;64069;46.396;48.102;2023-04-27T07:34:55;23.67;42.53
75489;HTU21D;64069;46.396;48.102;2023-04-27T07:37:22;23.64;42.65
75489;HTU21D;64069;46.396;48.102;2023-04-27T07:39:51;23.76;42.76
75489;HTU21D;64069;46.396;48.102;2023-04-27T07:42:18;23.97;42.58
75489;HTU21D;64069;46.396;48.102;2023-04-27T07:44:43;24.01;42.10
75489;HTU21D;64069;46.396;48.102;2023-04-27T07:47:09;24.01;41.87
75489;HTU21D;64069;46.396;48.102;2023-04-27T07:49:35;23.94;42.18
75489;HTU21D;64069;46.396;48.102;2023-04-27T07:52:01;23.97;42.30
75489;HTU21D;64069;46.396;48.102;2023-04-27T07:54:32;23.91;42.02
75489;HTU21D;64069;46.396;48.102;2023-04-27T07:56:58;23.98;42.24
75489;HTU21D;64069;46.396;48.102;2023-04-27T07:59:27;24.09;42.08
75489;HTU21D;64069;46.396;48.102;2023-04-27T08:01:53;24.16;42.15
75489;HTU21D;64069;46.396;48.102;2023-04-27T08:04:18;24.36;41.89
75489;HTU21D;64069;46.396;48.102;2023-04-27T08:06:44;24.42;41.68
75489;HTU21D;64069;46.396;48.102;2023-04-27T08:09:10;24.32;41.20
75489;HTU21D;64069;46.396;48.102;2023-04-27T08:11:36;24.28;41.57
75489;HTU21D;64069;46.396;48.102;2023-04-27T08:14:02;24.33;41.52
75489;HTU21D;64069;46.396;48.102;2023-04-27T08:16:28;24.32;41.81
75489;HTU21D;64069;46.396;48.102;2023-04-27T08:18:53;0.00;41.62
75489;HTU21D;64069;46.396;48.102;2023-04-27T08:21:19;24.44;41.78
75489;HTU21D;64069;46.396;48.102;2023-04-27T08:23:45;24.48;41.77
75489;HTU21D;64069;46.396;48.102;2023-04-27T08:26:14;24.49;41.78
75489;HTU21D;64069;46.396;48.102;2023-04-27T08:28:40;24.59;41.52
75489;HTU21D;64069;46.396;48.102;2023-04-27T08:31:06;24.62;41.49
75489;HTU21D;64069;46.396;48.102;2023-04-27T08:33:32;24.71;40.99
75489;HTU21D;64069;46.396;48.102;2023-04-27T08:35:57;0.00;40.90
75489;HTU21D;64069;46.396;48.102;2023-04-27T08:38:23;24.91;40.41
75489;HTU21D;64069;46.396;48.102;2023-04-27T08:40:49;25.02;40.23
75489;HTU21D;64069;46.396;48.102;2023-04-27T08:43:15;25.04;39.90
75489;HTU21D;64069;46.396;48.102;2023-04-27T08:45:47;25.02;39.20
75489;HTU21D;64069;46.396;48.102;2023-04-27T08:48:14;25.00;39.52
75489;HTU21D;64069;46.396;48.102;2023-04-27T08:50:42;25.01;39.49
75489;HTU21D;64069;46.396;48.102;2023-04-27T08:53:20;24.99;39.00
75489;HTU21D;64069;46.396;48.102;2023-04-27T08:55:46;24.99;39.10
75489;HTU21D;64069;46.396;48.102;2023-04-27T08:58:12;25.12;38.91
75489;HTU21D;64069;46.396;48.102;2023-04-27T09:00:38;25.02;38.91
75489;HTU21D;64069;46.396;48.102;2023-04-27T09:03:17;24.84;38.67
75489;HTU21D;64069;46.396;48.102;2023-04-27T09:05:45;24.57;38.58
75489;HTU21D;64069;46.396;48.102;2023-04-27T09:08:11;24.46;38.88
75489;HTU21D;64069;46.396;48.102;2023-04-27T09:10:43;24.48;38.95
75489;HTU21D;64069;46.396;48.102;2023-04-27T09:13:09;24.45;38.69
75489;HTU21D;64069;46.396;48.102;2023-04-27T09:15:48;24.31;38.72
75489;HTU21D;64069;46.396;48.102;2023-04-27T09:18:15;24.28;38.73
75489;HTU21D;64069;46.396;48.102;2023-04-27T09:20:51;24.26;38.98
75489;HTU21D;64069;46.396;48.102;2023-04-27T09:25:52;24.35;38.67
75489;HTU21D;64069;46.396;48.102;2023-04-27T09:28:19;24.27;38.79
75489;HTU21D;64069;46.396;48.102;2023-04-27T09:30:57;24.24;38.82
75489;HTU21D;64069;46.396;48.102;2023-04-27T09:33:24;24.26;38.99
75489;HTU21D;64069;46.396;48.102;2023-04-27T09:35:50;24.33;39.19
75489;HTU21D;64069;46.396;48.102;2023-04-27T09:38:17;24.43;39.09
75489;HTU21D;64069;46.396;48.102;2023-04-27T09:40:43;24.36;38.92
75489;HTU21D;64069;46.396;48.102;2023-04-27T09:43:09;24.35;39.22
75489;HTU21D;64069;46.396;48.102;2023-04-27T09:45:35;24.30;39.07
75489;HTU21D;64069;46.396;48.102;2023-04-27T09:48:01;24.33;39.10
75489;HTU21D;64069;46.396;48.102;2023-04-27T09:50:28;24.55;39.06
75489;HTU21D;64069;46.396;48.102;2023-04-27T09:52:54;24.78;38.90
75489;HTU21D;64069;46.396;48.102;2023-04-27T09:55:24;24.85;38.79
75489;HTU21D;64069;46.396;48.102;2023-04-27T10:03:29;24.65;38.60
75489;HTU21D;64069;46.396;48.102;2023-04-27T10:08:41;24.51;38.70
75489;HTU21D;64069;46.396;48.102;2023-04-27T10:11:13;24.48;38.46
75489;HTU21D;64069;46.396;48.102;2023-04-27T10:13:50;24.60;38.35
75489;HTU21D;64069;46.396;48.102;2023-04-27T10:16:17;24.71;38.14
75489;HTU21D;64069;46.396;48.102;2023-04-27T10:18:50;24.91;37.92
75489;HTU21D;64069;46.396;48.102;2023-04-27T10:21:17;25.07;37.89
75489;HTU21D;64069;46.396;48.102;2023-04-27T10:23:47;25.09;37.79
75489;HTU21D;64069;46.396;48.102;2023-04-27T10:26:20;25.09;37.90
75489;HTU21D;64069;46.396;48.102;2023-04-27T10:28:54;25.08;37.99
75489;HTU21D;64069;46.396;48.102;2023-04-27T10:31:25;25.05;38.09
75489;HTU21D;64069;46.396;48.102;2023-04-27T10:33:51;24.92;37.82
75489;HTU21D;64069;46.396;48.102;2023-04-27T10:36:17;24.90;38.00
75489;HTU21D;64069;46.396;48.102;2023-04-27T10:38:43;24.93;38.01
75489;HTU21D;64069;46.396;48.102;2023-04-27T10:41:12;24.91;38.12
75489;HTU21D;64069;46.396;48.102;2023-04-27T10:43:38;24.72;38.22
75489;HTU21D;64069;46.396;48.102;2023-04-27T10:48:32;24.47;38.53
75489;HTU21D;64069;46.396;48.102;2023-04-27T10:50:58;24.35;38.40
75489;HTU21D;64069;46.396;48.102;2023-04-27T10:53:25;24.32;38.75
75489;HTU21D;64069;46.396;48.102;2023-04-27T10:55:54;24.31;38.45
75489;HTU21D;64069;46.396;48.102;2023-04-27T10:58:23;24.35;38.56
75489;HTU21D;64069;46.396;48.102;2023-04-27T11:00:54;24.38;38.31
75489;HTU21D;64069;46.396;48.102;2023-04-27T11:03:23;24.45;38.14
75489;HTU21D;64069;46.396;48.102;2023-04-27T11:05:58;24.44;38.31
75489;HTU21D;64069;46.396;48.102;2023-04-27T11:08:24;24.50;38.35
75489;HTU21D;64069;46.396;48.102;2023-04-27T11:10:50;24.56;38.36
75489;HTU21D;64069;46.396;48.102;2023-04-27T11:13:19;24.61;38.40
75489;HTU21D;64069;46.396;48.102;2023-04-27T11:15:46;24.62;38.43
75489;HTU21D;64069;46.396;48.102;2023-04-27T11:18:13;24.74;38.41
75489;HTU21D;64069;46.396;48.102;2023-04-27T11:20:45;24.85;38.42
75489;HTU21D;64069;46.396;48.102;2023-04-27T11:23:21;24.87;38.40
75489;HTU21D;64069;46.396;48.102;2023-04-27T11:25:47;24.98;38.41
75489;HTU21D;64069;46.396;48.102;2023-04-27T11:28:16;25.05;38.33
75489;HTU21D;64069;46.396;48.102;2023-04-27T11:30:42;25.08;38.27
75489;HTU21D;64069;46.396;48.102;2023-04-27T11:33:12;25.03;38.48
75489;HTU21D;64069;46.396;48.102;2023-04-27T11:35:37;25.09;38.55
75489;HTU21D;64069;46.396;48.102;2023-04-27T11:38:03;25.09;38.36
75489;HTU21D;64069;46.396;48.102;2023-04-27T11:40:29;25.07;38.40
75489;HTU21D;64069;46.396;48.102;2023-04-27T11:42:57;24.98;38.43
75489;HTU21D;64069;46.396;48.102;2023-04-27T11:45:24;24.93;38.49
75489;HTU21D;64069;46.396;48.102;2023-04-27T11:47:49;24.88;38.10
75489;HTU21D;64069;46.396;48.102;2023-04-27T11:50:15;24.77;38.20
75489;HTU21D;64069;46.396;48.102;2023-04-27T11:52:41;24.65;38.41
75489;HTU21D;64069;46.396;48.102;2023-04-27T11:55:08;24.66;38.56
75489;HTU21D;64069;46.396;48.102;2023-04-27T11:57:40;24.72;38.65
75489;HTU21D;64069;46.396;48.102;2023-04-27T12:00:06;24.77;38.62
75489;HTU21D;64069;46.396;48.102;2023-04-27T12:02:43;24.66;38.34
75489;HTU21D;64069;46.396;48.102;2023-04-27T12:05:09;24.56;38.27
75489;HTU21D;64069;46.396;48.102;2023-04-27T12:07:36;24.47;38.47
75489;HTU21D;64069;46.396;48.102;2023-04-27T12:10:03;24.46;38.04
75489;HTU21D;64069;46.396;48.102;2023-04-27T12:12:28;24.42;38.30
75489;HTU21D;64069;46.396;48.102;2023-04-27T12:14:54;24.42;38.30
75489;HTU21D;64069;46.396;48.102;2023-04-27T12:17:20;24.38;37.97
75489;HTU21D;64069;46.396;48.102;2023-04-27T12:19:46;24.31;38.17
75489;HTU21D;64069;46.396;48.102;2023-04-27T12:22:18;24.27;38.28
75489;HTU21D;64069;46.396;48.102;2023-04-27T12:24:44;24.18;37.85
75489;HTU21D;64069;46.396;48.102;2023-04-27T12:27:11;24.15;38.04
75489;HTU21D;64069;46.396;48.102;2023-04-27T12:29:37;24.12;38.03
75489;HTU21D;64069;46.396;48.102;2023-04-27T12:32:03;24.02;38.25
75489;HTU21D;64069;46.396;48.102;2023-04-27T12:34:29;23.92;38.04
75489;HTU21D;64069;46.396;48.102;2023-04-27T12:36:55;23.88;38.49
75489;HTU21D;64069;46.396;48.102;2023-04-27T12:39:21;23.87;38.51
75489;HTU21D;64069;46.396;48.102;2023-04-27T12:41:50;23.82;38.59
75489;HTU21D;64069;46.396;48.102;2023-04-27T12:44:16;23.81;38.54
75489;HTU21D;64069;46.396;48.102;2023-04-27T12:46:42;23.79;38.43
75489;HTU21D;64069;46.396;48.102;2023-04-27T12:49:11;23.79;38.76
75489;HTU21D;64069;46.396;48.102;2023-04-27T12:51:37;23.80;38.71
75489;HTU21D;64069;46.396;48.102;2023-04-27T12:54:03;23.83;38.73
75489;HTU21D;64069;46.396;48.102;2023-04-27T12:56:29;23.80;38.74
75489;HTU21D;64069;46.396;48.102;2023-04-27T12:58:54;23.76;38.38
75489;HTU21D;64069;46.396;48.102;2023-04-27T13:01:21;23.69;38.72
75489;HTU21D;64069;46.396;48.102;2023-04-27T13:03:53;23.64;38.46
75489;HTU21D;64069;46.396;48.102;2023-04-27T13:06:19;23.58;38.57
75489;HTU21D;64069;46.396;48.102;2023-04-27T13:08:45;23.60;38.75
75489;HTU21D;64069;46.396;48.102;2023-04-27T13:11:11;23.64;38.72
75489;HTU21D;64069;46.396;48.102;2023-04-27T13:13:37;23.65;38.63
75489;HTU21D;64069;46.396;48.102;2023-04-27T13:16:03;23.68;38.75
75489;HTU21D;64069;46.396;48.102;2023-04-27T13:18:28;23.68;38.65
75489;HTU21D;64069;46.396;48.102;2023-04-27T13:20:57;23.64;38.70
75489;HTU21D;64069;46.396;48.102;2023-04-27T13:23:26;23.65;38.91
75489;HTU21D;64069;46.396;48.102;2023-04-27T13:25:52;23.61;38.89
75489;HTU21D;64069;46.396;48.102;2023-04-27T13:28:18;23.54;38.58
75489;HTU21D;64069;46.396;48.102;2023-04-27T13:30:43;23.54;38.82
75489;HTU21D;64069;46.396;48.102;2023-04-27T13:33:10;23.46;38.58
75489;HTU21D;64069;46.396;48.102;2023-04-27T13:35:36;23.42;38.65
75489;HTU21D;64069;46.396;48.102;2023-04-27T13:38:02;23.40;38.82
75489;HTU21D;64069;46.396;48.102;2023-04-27T13:40:28;23.41;38.80
75489;HTU21D;64069;46.396;48.102;2023-04-27T13:42:54;0.00;38.90
75489;HTU21D;64069;46.396;48.102;2023-04-27T13:45:20;23.36;39.00
75489;HTU21D;64069;46.396;48.102;2023-04-27T13:47:49;23.34;39.04
75489;HTU21D;64069;46.396;48.102;2023-04-27T13:50:15;23.29;39.26
75489;HTU21D;64069;46.396;48.102;2023-04-27T13:52:41;23.29;39.32
75489;HTU21D;64069;46.396;48.102;2023-04-27T13:55:08;23.23;39.47
75489;HTU21D;64069;46.396;48.102;2023-04-27T13:57:34;23.17;39.30
75489;HTU21D;64069;46.396;48.102;2023-04-27T14:00:00;23.07;39.61
75489;HTU21D;64069;46.396;48.102;2023-04-27T14:02:29;23.01;39.83
75489;HTU21D;64069;46.396;48.102;2023-04-27T14:04:55;22.95;39.98
75489;HTU21D;64069;46.396;48.102;2023-04-27T14:07:21;22.88;40.20
75489;HTU21D;64069;46.396;48.102;2023-04-27T14:09:47;22.86;40.36
75489;HTU21D;64069;46.396;48.102;2023-04-27T14:12:13;22.82;40.55
75489;HTU21D;64069;46.396;48.102;2023-04-27T14:14:39;22.79;40.77
75489;HTU21D;64069;46.396;48.102;2023-04-27T14:17:05;22.76;40.88
75489;HTU21D;64069;46.396;48.102;2023-04-27T14:19:31;22.75;40.94
75489;HTU21D;64069;46.396;48.102;2023-04-27T14:21:57;22.75;41.13
75489;HTU21D;64069;46.396;48.102;2023-04-27T14:24:23;22.79;41.24
75489;HTU21D;64069;46.396;48.102;2023-04-27T14:26:49;22.81;41.23
75489;HTU21D;64069;46.396;48.102;2023-04-27T14:29:15;22.83;41.33
75489;HTU21D;64069;46.396;48.102;2023-04-27T14:31:41;22.82;41.45
75489;HTU21D;64069;46.396;48.102;2023-04-27T14:34:07;22.79;41.64
75489;HTU21D;64069;46.396;48.102;2023-04-27T14:36:33;22.73;41.77
75489;HTU21D;64069;46.396;48.102;2023-04-27T14:38:59;22.71;41.88
75489;HTU21D;64069;46.396;48.102;2023-04-27T14:41:29;22.67;42.00
75489;HTU21D;64069;46.396;48.102;2023-04-27T14:43:55;22.63;42.17
75489;HTU21D;64069;46.396;48.102;2023-04-27T14:46:20;22.57;42.31
75489;HTU21D;64069;46.396;48.102;2023-04-27T14:48:47;22.50;42.49
75489;HTU21D;64069;46.396;48.102;2023-04-27T14:51:12;22.41;42.73
75489;HTU21D;64069;46.396;48.102;2023-04-27T14:53:39;22.32;42.84
75489;HTU21D;64069;46.396;48.102;2023-04-27T14:56:08;22.23;42.99
75489;HTU21D;64069;46.396;48.102;2023-04-27T14:58:34;22.13;43.26
75489;HTU21D;64069;46.396;48.102;2023-04-27T15:00:59;22.02;43.47
75489;HTU21D;64069;46.396;48.102;2023-04-27T15:03:26;21.88;43.69
75489;HTU21D;64069;46.396;48.102;2023-04-27T15:05:51;21.76;43.89
75489;HTU21D;64069;46.396;48.102;2023-04-27T15:08:17;21.64;44.16
75489;HTU21D;64069;46.396;48.102;2023-04-27T15:10:43;21.55;44.28
75489;HTU21D;64069;46.396;48.102;2023-04-27T15:13:08;21.48;44.43